createdAt,value
2023-03-30T00:01:43.056Z,4.92
2023-03-30T00:06:45.985Z,4.97
2023-03-30T00:11:49.177Z,4.99
2023-03-30T00:16:53.498Z,4.96
2023-03-30T00:21:56.772Z,4.95
2023-03-30T00:26:59.954Z,4.93
2023-03-30T00:32:03.573Z,4.94
2023-03-30T00:37:06.462Z,4.96
2023-03-30T00:42:17.781Z,4.90
2023-03-30T00:47:21.466Z,4.89
2023-03-30T00:52:25.110Z,4.87
2023-03-30T00:57:28.752Z,4.88
2023-03-30T01:02:39.743Z,4.89
2023-03-30T01:07:46.510Z,4.89
2023-03-30T01:12:50.057Z,4.86
2023-03-30T01:18:08.962Z,4.82
2023-03-30T01:23:27.432Z,4.73
2023-03-30T01:28:49.107Z,4.50
2023-03-30T01:34:57.840Z,4.25
2023-03-30T01:40:17.395Z,4.00
2023-03-30T01:45:26.259Z,3.79
2023-03-30T01:51:06.203Z,3.49
2023-03-30T01:56:51.879Z,3.27
2023-03-30T02:02:04.328Z,3.09
2023-03-30T02:07:19.325Z,2.88
2023-03-30T02:12:23.916Z,2.73
2023-03-30T02:17:30.872Z,2.65
2023-03-30T02:22:34.190Z,2.48
2023-03-30T02:27:38.644Z,2.31
2023-03-30T02:32:52.129Z,2.19
2023-03-30T02:38:20.144Z,2.09
2023-03-30T02:44:03.828Z,2.06
2023-03-30T02:49:25.898Z,2.11
2023-03-30T02:54:54.225Z,2.19
2023-03-30T03:00:24.716Z,2.36
2023-03-30T03:05:28.836Z,2.46
2023-03-30T03:10:36.314Z,2.61
2023-03-30T03:15:39.440Z,2.72
2023-03-30T03:20:42.956Z,2.85
2023-03-30T03:25:45.926Z,2.95
2023-03-30T03:30:52.167Z,3.09
2023-03-30T03:35:55.636Z,3.14
2023-03-30T03:40:59.809Z,3.22
2023-03-30T03:46:03.229Z,3.29
2023-03-30T03:51:07.163Z,3.35
2023-03-30T03:56:11.657Z,3.37
2023-03-30T04:01:15.409Z,3.34
2023-03-30T04:06:18.493Z,3.33
2023-03-30T04:11:22.360Z,3.36
2023-03-30T04:16:25.474Z,3.37
2023-03-30T04:21:29.956Z,3.38
2023-03-30T04:26:32.998Z,3.35
2023-03-30T04:31:38.325Z,3.29
2023-03-30T04:36:44.446Z,3.29
2023-03-30T04:41:47.905Z,3.32
2023-03-30T04:46:50.992Z,3.41
2023-03-30T04:51:54.748Z,3.55
2023-03-30T04:56:57.738Z,3.66
2023-03-30T05:02:01.012Z,3.79
2023-03-30T05:07:04.870Z,3.85
2023-03-30T05:12:08.149Z,3.96
2023-03-30T05:17:11.736Z,4.12
2023-03-30T05:22:16.380Z,4.26
2023-03-30T05:27:20.045Z,4.44
2023-03-30T05:32:23.162Z,4.62
2023-03-30T05:37:26.675Z,4.77
2023-03-30T05:42:29.608Z,4.93
2023-03-30T05:47:32.669Z,4.98
2023-03-30T05:52:35.618Z,5.16
2023-03-30T05:57:38.665Z,5.32
2023-03-30T06:02:41.800Z,5.52
2023-03-30T06:07:45.861Z,5.78
2023-03-30T06:12:48.812Z,6.01
2023-03-30T06:17:52.922Z,6.20
2023-03-30T06:22:56.536Z,6.29
2023-03-30T06:27:59.531Z,6.35
2023-03-30T06:33:02.552Z,6.51
2023-03-30T06:38:05.640Z,6.63
2023-03-30T06:43:18.373Z,6.74
2023-03-30T06:48:24.057Z,6.82
2023-03-30T06:53:27.124Z,6.88
2023-03-30T06:58:30.756Z,6.95
2023-03-30T07:03:33.845Z,7.00
2023-03-30T07:08:37.295Z,7.01
2023-03-30T07:13:40.832Z,7.02
2023-03-30T07:18:43.784Z,7.11
2023-03-30T07:23:46.750Z,7.23
2023-03-30T07:28:49.732Z,7.32
2023-03-30T07:33:53.041Z,7.49
2023-03-30T07:38:58.500Z,7.81
2023-03-30T07:44:01.800Z,8.12
2023-03-30T07:49:04.580Z,8.41
2023-03-30T07:54:10.340Z,8.87
2023-03-30T07:59:13.665Z,9.36
2023-03-30T08:04:18.250Z,9.83
2023-03-30T08:09:21.451Z,10.20
2023-03-30T08:14:26.556Z,10.41
2023-03-30T08:19:29.587Z,10.46
2023-03-30T08:24:33.073Z,10.23
2023-03-30T08:29:36.048Z,10.00
2023-03-30T08:34:39.410Z,9.80
2023-03-30T08:39:42.501Z,9.70
2023-03-30T08:44:54.155Z,9.65
2023-03-30T08:50:34.481Z,9.57
2023-03-30T08:56:00.884Z,9.58
2023-03-30T09:01:07.425Z,9.75
2023-03-30T09:06:26.819Z,9.72
2023-03-30T09:11:37.128Z,9.73
2023-03-30T09:16:56.052Z,9.85
2023-03-30T09:22:03.797Z,10.05
2023-03-30T09:27:41.359Z,10.17
2023-03-30T09:33:00.263Z,10.31
2023-03-30T09:38:04.307Z,10.47
2023-03-30T09:43:19.287Z,10.91
2023-03-30T09:48:22.108Z,11.39
2023-03-30T09:53:29.297Z,11.71
2023-03-30T09:58:34.627Z,11.98
2023-03-30T10:03:38.060Z,12.10
2023-03-30T10:08:52.233Z,12.13
2023-03-30T10:13:55.211Z,11.99
2023-03-30T10:19:04.934Z,11.84
2023-03-30T10:24:23.379Z,11.86
2023-03-30T10:29:29.624Z,11.92
2023-03-30T10:34:46.260Z,12.16
2023-03-30T10:39:51.236Z,12.25
2023-03-30T10:45:06.793Z,12.37
2023-03-30T10:50:12.803Z,12.36
2023-03-30T10:55:38.896Z,12.51
2023-03-30T11:01:26.720Z,12.89
2023-03-30T11:06:40.110Z,13.05
2023-03-30T11:11:56.424Z,13.04
2023-03-30T11:17:10.753Z,12.84
2023-03-30T11:22:33.430Z,12.66
2023-03-30T11:27:48.273Z,12.51
2023-03-30T11:33:08.262Z,12.46
2023-03-30T11:38:57.136Z,12.61
2023-03-30T11:44:00.123Z,12.97
2023-03-30T11:49:33.463Z,13.22
2023-03-30T11:55:08.358Z,13.37
2023-03-30T12:00:34.653Z,13.49
2023-03-30T12:05:53.325Z,13.59
2023-03-30T12:11:12.163Z,13.79
2023-03-30T12:16:29.334Z,14.25
2023-03-30T12:21:38.229Z,14.53
2023-03-30T12:26:43.780Z,14.60
2023-03-30T12:32:03.738Z,14.47
2023-03-30T12:37:35.013Z,14.38
2023-03-30T12:42:46.937Z,14.33
2023-03-30T12:48:17.079Z,14.49
2023-03-30T12:53:31.776Z,14.60
2023-03-30T12:59:31.162Z,14.56
2023-03-30T13:04:40.555Z,14.56
2023-03-30T13:10:06.543Z,14.52
2023-03-30T13:15:42.366Z,14.43
2023-03-30T13:20:48.299Z,14.31
2023-03-30T13:26:39.760Z,14.25
2023-03-30T13:32:12.955Z,14.22
2023-03-30T13:37:51.722Z,14.17
2023-03-30T13:43:17.084Z,14.19
2023-03-30T13:48:41.816Z,14.22
2023-03-30T13:53:57.019Z,14.23
2023-03-30T13:59:07.610Z,14.30
2023-03-30T14:04:13.837Z,14.41
2023-03-30T14:09:26.460Z,14.33
2023-03-30T14:14:30.117Z,14.34
2023-03-30T14:19:37.000Z,14.45
2023-03-30T14:24:40.029Z,14.54
2023-03-30T14:29:49.700Z,14.49
2023-03-30T14:34:54.687Z,14.45
2023-03-30T14:39:57.757Z,14.35
2023-03-30T14:45:01.241Z,14.26
2023-03-30T14:50:08.865Z,14.31
2023-03-30T14:55:24.121Z,14.41
2023-03-30T15:00:46.095Z,14.51
2023-03-30T15:05:49.134Z,14.51
2023-03-30T15:10:58.653Z,14.47
2023-03-30T15:16:02.521Z,14.35
2023-03-30T15:21:07.976Z,14.29
2023-03-30T15:26:12.683Z,14.27
2023-03-30T15:31:16.529Z,14.22
2023-03-30T15:36:26.795Z,14.14
2023-03-30T15:42:04.315Z,14.03
2023-03-30T15:47:17.977Z,13.92
2023-03-30T15:52:34.777Z,13.76
2023-03-30T15:57:46.118Z,13.45
2023-03-30T16:02:59.356Z,12.97
2023-03-30T16:08:02.580Z,12.59
2023-03-30T16:13:07.185Z,12.19
2023-03-30T16:18:12.481Z,11.87
2023-03-30T16:23:15.498Z,11.64
2023-03-30T16:28:18.963Z,11.47
2023-03-30T16:33:21.950Z,11.31
2023-03-30T16:38:25.486Z,11.18
2023-03-30T16:43:28.536Z,11.10
2023-03-30T16:48:31.567Z,10.96
2023-03-30T16:53:34.650Z,10.79
2023-03-30T16:58:37.954Z,10.64
2023-03-30T17:03:41.305Z,10.58
2023-03-30T17:08:44.861Z,10.53
2023-03-30T17:13:49.071Z,10.47
2023-03-30T17:18:52.066Z,10.40
2023-03-30T17:23:55.328Z,10.34
2023-03-30T17:28:58.275Z,10.33
2023-03-30T17:34:01.333Z,10.29
2023-03-30T17:39:05.055Z,10.24
2023-03-30T17:44:08.241Z,10.18
2023-03-30T17:49:17.848Z,10.16
2023-03-30T17:54:20.921Z,10.09
2023-03-30T17:59:23.876Z,10.05
2023-03-30T18:04:27.821Z,10.01
2023-03-30T18:09:31.333Z,9.97
2023-03-30T18:14:34.405Z,9.93
2023-03-30T18:19:37.327Z,9.90
2023-03-30T18:24:41.137Z,9.85
2023-03-30T18:29:47.133Z,9.80
2023-03-30T18:34:50.071Z,9.78
2023-03-30T18:39:53.487Z,9.72
2023-03-30T18:44:56.565Z,9.69
2023-03-30T18:49:59.557Z,9.64
2023-03-30T18:55:02.951Z,9.58
2023-03-30T19:00:21.569Z,9.56
2023-03-30T19:05:27.448Z,9.55
2023-03-30T19:10:38.784Z,9.48
2023-03-30T19:15:42.551Z,9.33
2023-03-30T19:20:46.407Z,9.23
2023-03-30T19:25:49.906Z,9.17
2023-03-30T19:30:53.365Z,9.13
2023-03-30T19:35:56.390Z,9.06
2023-03-30T19:41:04.883Z,9.02
2023-03-30T19:46:08.817Z,8.98
2023-03-30T19:51:14.826Z,8.91
2023-03-30T19:56:18.443Z,8.80
2023-03-30T20:01:21.946Z,8.73
2023-03-30T20:06:25.836Z,8.77
2023-03-30T20:11:29.164Z,8.78
2023-03-30T20:16:35.151Z,8.75
2023-03-30T20:21:39.270Z,8.73
2023-03-30T20:26:42.382Z,8.79
2023-03-30T20:31:46.326Z,8.81
2023-03-30T20:36:49.963Z,8.80
2023-03-30T20:41:58.324Z,8.77
2023-03-30T20:47:04.071Z,8.78
2023-03-30T20:52:07.158Z,8.80
2023-03-30T20:57:10.484Z,8.79
2023-03-30T21:02:14.611Z,8.77
2023-03-30T21:07:18.166Z,8.77
2023-03-30T21:12:21.392Z,8.70
2023-03-30T21:17:24.771Z,8.61
2023-03-30T21:22:29.878Z,8.49
2023-03-30T21:27:32.743Z,8.41
2023-03-30T21:32:35.945Z,8.30
2023-03-30T21:37:38.966Z,8.25
2023-03-30T21:42:41.758Z,8.21
2023-03-30T21:47:44.537Z,8.18
2023-03-30T21:52:48.339Z,8.16
2023-03-30T21:57:51.296Z,8.14
2023-03-30T22:02:54.320Z,8.13
2023-03-30T22:07:57.421Z,8.15
2023-03-30T22:13:00.324Z,8.15
2023-03-30T22:18:06.954Z,8.17
2023-03-30T22:23:09.945Z,8.19
2023-03-30T22:28:13.037Z,8.21
2023-03-30T22:33:17.370Z,8.21
2023-03-30T22:38:20.639Z,8.16
2023-03-30T22:43:24.224Z,8.14
2023-03-30T22:48:27.279Z,8.13
2023-03-30T22:53:31.682Z,8.10
2023-03-30T22:58:35.990Z,8.08
2023-03-30T23:03:39.326Z,8.03
2023-03-30T23:08:42.582Z,8.00
2023-03-30T23:13:45.637Z,7.96
2023-03-30T23:18:50.467Z,7.93
2023-03-30T23:23:53.473Z,7.93
2023-03-30T23:28:57.161Z,7.89
2023-03-30T23:34:00.491Z,7.89
2023-03-30T23:39:03.642Z,7.83
2023-03-30T23:44:06.723Z,7.82
2023-03-30T23:49:10.103Z,7.77
2023-03-30T23:54:15.759Z,7.74
2023-03-30T23:59:18.589Z,7.71
